createdAt,value
2023-07-25T00:01:54.211Z,17.41
2023-07-25T00:04:21.134Z,17.55
2023-07-25T00:06:48.039Z,17.54
2023-07-25T00:09:14.847Z,17.47
2023-07-25T00:11:41.669Z,17.50
2023-07-25T00:14:08.486Z,17.40
2023-07-25T00:16:35.372Z,17.40
2023-07-25T00:19:02.199Z,17.37
2023-07-25T00:21:29.131Z,17.41
2023-07-25T00:23:55.991Z,17.38
2023-07-25T00:26:22.897Z,17.38
2023-07-25T00:28:49.652Z,17.35
2023-07-25T00:31:16.469Z,17.35
2023-07-25T00:33:43.423Z,17.26
2023-07-25T00:36:10.463Z,17.29
2023-07-25T00:38:37.312Z,17.26
2023-07-25T00:41:04.181Z,17.26
2023-07-25T00:43:31.207Z,17.25
2023-07-25T00:45:58.351Z,17.17
2023-07-25T00:48:25.420Z,17.14
2023-07-25T00:50:52.264Z,17.13
2023-07-25T00:53:19.309Z,17.14
2023-07-25T00:55:46.188Z,17.15
2023-07-25T00:58:13.069Z,17.12
2023-07-25T01:00:40.107Z,17.10
2023-07-25T01:03:07.872Z,17.02
2023-07-25T01:05:37.876Z,17.03
2023-07-25T01:08:04.896Z,17.02
2023-07-25T01:10:33.688Z,17.02
2023-07-25T01:13:00.565Z,17.02
2023-07-25T01:15:28.794Z,16.94
2023-07-25T01:17:55.856Z,16.91
2023-07-25T01:20:23.625Z,16.87
2023-07-25T01:22:52.095Z,16.87
2023-07-25T01:25:18.964Z,16.87
2023-07-25T01:27:45.862Z,16.91
2023-07-25T01:30:12.872Z,16.89
2023-07-25T01:32:39.861Z,16.85
2023-07-25T01:35:07.958Z,16.85
2023-07-25T01:37:34.894Z,16.81
2023-07-25T01:40:01.808Z,16.76
2023-07-25T01:42:28.693Z,16.72
2023-07-25T01:44:55.551Z,16.69
2023-07-25T01:47:27.345Z,16.75
2023-07-25T01:49:54.675Z,16.66
2023-07-25T01:52:21.981Z,16.69
2023-07-25T01:54:51.143Z,16.66
2023-07-25T01:57:18.483Z,16.63
2023-07-25T01:59:45.362Z,16.63
2023-07-25T02:02:12.250Z,16.56
2023-07-25T02:04:39.071Z,16.54
2023-07-25T02:07:06.233Z,16.49
2023-07-25T02:09:33.078Z,16.45
2023-07-25T02:11:59.925Z,16.50
2023-07-25T02:14:26.882Z,16.52
2023-07-25T02:16:54.345Z,16.48
2023-07-25T02:19:21.708Z,16.44
2023-07-25T02:21:48.604Z,16.41
2023-07-25T02:24:15.494Z,16.33
2023-07-25T02:26:42.393Z,16.36
2023-07-25T02:29:09.291Z,16.32
2023-07-25T02:31:36.493Z,16.27
2023-07-25T02:34:03.576Z,16.29
2023-07-25T02:36:30.533Z,16.26
2023-07-25T02:38:57.352Z,16.17
2023-07-25T02:41:25.739Z,16.17
2023-07-25T02:43:52.696Z,16.14
2023-07-25T02:46:19.661Z,16.09
2023-07-25T02:48:46.488Z,16.10
2023-07-25T02:51:13.865Z,16.01
2023-07-25T02:53:40.898Z,16.07
2023-07-25T02:56:07.807Z,16.08
2023-07-25T02:58:34.725Z,16.07
2023-07-25T03:01:01.712Z,16.04
2023-07-25T03:03:28.671Z,15.90
2023-07-25T03:05:55.693Z,15.98
2023-07-25T03:08:22.560Z,15.96
2023-07-25T03:10:49.436Z,15.89
2023-07-25T03:13:16.613Z,15.80
2023-07-25T03:15:43.519Z,15.79
2023-07-25T03:18:10.430Z,15.78
2023-07-25T03:20:37.331Z,15.71
2023-07-25T03:23:04.310Z,15.67
2023-07-25T03:25:31.118Z,15.67
2023-07-25T03:27:57.915Z,15.57
2023-07-25T03:30:24.838Z,15.57
2023-07-25T03:32:51.645Z,15.48
2023-07-25T03:35:18.578Z,15.51
2023-07-25T03:37:45.391Z,15.46
2023-07-25T03:40:12.417Z,15.44
2023-07-25T03:42:39.270Z,15.47
2023-07-25T03:45:06.564Z,15.44
2023-07-25T03:47:34.169Z,15.30
2023-07-25T03:50:01.015Z,15.30
2023-07-25T03:52:28.557Z,15.42
2023-07-25T03:54:55.465Z,15.39
2023-07-25T03:57:22.298Z,15.44
2023-07-25T03:59:49.165Z,15.49
2023-07-25T04:02:22.192Z,15.50
2023-07-25T04:04:52.537Z,15.57
2023-07-25T04:07:19.489Z,15.54
2023-07-25T04:09:46.312Z,15.63
2023-07-25T04:12:13.178Z,15.65
2023-07-25T04:14:41.943Z,15.55
2023-07-25T04:17:08.826Z,15.62
2023-07-25T04:19:35.679Z,15.74
2023-07-25T04:22:02.582Z,15.76
2023-07-25T04:24:29.446Z,15.66
2023-07-25T04:26:56.301Z,15.67
2023-07-25T04:29:23.143Z,15.81
2023-07-25T04:31:49.973Z,15.81
2023-07-25T04:34:16.852Z,15.83
2023-07-25T04:36:43.803Z,15.87
2023-07-25T04:39:10.747Z,15.90
2023-07-25T04:41:37.666Z,15.99
2023-07-25T04:44:04.716Z,16.00
2023-07-25T04:46:31.686Z,16.01
2023-07-25T04:48:58.559Z,16.10
2023-07-25T04:51:25.525Z,16.15
2023-07-25T04:53:55.224Z,16.17
2023-07-25T04:56:22.034Z,16.19
2023-07-25T04:58:48.885Z,16.34
2023-07-25T05:01:16.496Z,16.38
2023-07-25T05:03:43.489Z,16.46
2023-07-25T05:06:10.336Z,16.53
2023-07-25T05:08:37.259Z,16.60
2023-07-25T05:11:04.500Z,16.68
2023-07-25T05:13:31.379Z,16.72
2023-07-25T05:15:58.312Z,16.82
2023-07-25T05:18:25.267Z,16.87
2023-07-25T05:20:52.063Z,17.01
2023-07-25T05:23:18.971Z,17.10
2023-07-25T05:25:49.012Z,17.20
2023-07-25T05:28:16.250Z,17.27
2023-07-25T05:30:43.096Z,17.44
2023-07-25T05:33:09.977Z,17.52
2023-07-25T05:35:38.669Z,17.71
2023-07-25T05:38:09.319Z,17.86
2023-07-25T05:40:36.631Z,18.04
2023-07-25T05:43:04.312Z,18.19
2023-07-25T05:45:31.376Z,18.34
2023-07-25T05:47:58.322Z,18.42
2023-07-25T05:50:25.204Z,18.65
2023-07-25T05:52:52.038Z,18.72
2023-07-25T05:55:18.915Z,19.02
2023-07-25T05:57:45.840Z,19.18
2023-07-25T06:00:13.321Z,19.38
2023-07-25T06:02:40.224Z,19.54
2023-07-25T06:05:08.273Z,19.73
2023-07-25T06:07:35.118Z,19.90
2023-07-25T06:10:03.195Z,20.19
2023-07-25T06:12:30.434Z,20.39
2023-07-25T06:14:57.265Z,20.65
2023-07-25T06:17:24.272Z,20.73
2023-07-25T06:19:51.098Z,20.98
2023-07-25T06:22:18.061Z,21.19
2023-07-25T06:24:45.020Z,21.36
2023-07-25T06:27:11.843Z,21.53
2023-07-25T06:29:38.670Z,21.68
2023-07-25T06:32:05.868Z,21.85
2023-07-25T06:34:32.696Z,21.94
2023-07-25T06:36:59.487Z,21.93
2023-07-25T06:39:26.365Z,22.16
2023-07-25T06:41:53.227Z,22.28
2023-07-25T06:44:21.140Z,22.41
2023-07-25T06:46:48.200Z,22.61
2023-07-25T06:49:15.275Z,22.77
2023-07-25T06:51:42.113Z,23.05
2023-07-25T06:54:09.049Z,23.24
2023-07-25T06:56:35.891Z,23.43
2023-07-25T06:59:02.814Z,23.73
2023-07-25T07:01:30.136Z,23.93
2023-07-25T07:03:57.230Z,24.22
2023-07-25T07:06:24.055Z,24.36
2023-07-25T07:08:50.865Z,24.55
2023-07-25T07:11:18.372Z,24.73
2023-07-25T07:13:45.248Z,24.78
2023-07-25T07:16:12.108Z,24.99
2023-07-25T07:18:39.066Z,25.27
2023-07-25T07:21:06.766Z,25.47
2023-07-25T07:23:33.726Z,25.72
2023-07-25T07:26:00.571Z,25.80
2023-07-25T07:28:28.176Z,25.90
2023-07-25T07:30:55.045Z,25.92
2023-07-25T07:33:23.331Z,25.94
2023-07-25T07:35:50.202Z,25.96
2023-07-25T07:38:17.024Z,25.94
2023-07-25T07:40:43.860Z,25.79
2023-07-25T07:43:10.765Z,25.54
2023-07-25T07:45:37.578Z,25.40
2023-07-25T07:48:04.704Z,25.10
2023-07-25T07:50:34.416Z,24.90
2023-07-25T07:53:02.425Z,24.70
2023-07-25T07:55:29.859Z,24.55
2023-07-25T07:57:56.861Z,24.33
2023-07-25T08:00:25.195Z,24.20
2023-07-25T08:02:53.331Z,24.02
2023-07-25T08:05:20.265Z,23.80
2023-07-25T08:07:47.574Z,23.55
2023-07-25T08:10:14.740Z,23.36
2023-07-25T08:12:42.070Z,23.27
2023-07-25T08:15:09.612Z,23.15
2023-07-25T08:17:36.721Z,23.03
2023-07-25T08:20:04.077Z,22.95
2023-07-25T08:22:30.901Z,22.84
2023-07-25T08:24:59.419Z,22.73
2023-07-25T08:27:26.372Z,22.69
2023-07-25T08:29:53.300Z,22.67
2023-07-25T08:32:20.182Z,22.60
2023-07-25T08:34:47.164Z,22.62
2023-07-25T08:37:13.996Z,22.53
2023-07-25T08:39:40.811Z,22.55
2023-07-25T08:42:10.701Z,22.44
2023-07-25T08:44:38.389Z,22.44
2023-07-25T08:47:11.103Z,22.35
2023-07-25T08:49:41.553Z,22.25
2023-07-25T08:52:09.427Z,22.07
2023-07-25T08:54:38.292Z,21.97
2023-07-25T08:57:05.780Z,21.93
2023-07-25T08:59:33.083Z,21.83
2023-07-25T09:02:00.550Z,21.73
2023-07-25T09:04:29.510Z,21.56
2023-07-25T09:06:56.376Z,21.55
2023-07-25T09:09:24.754Z,21.37
2023-07-25T09:11:51.677Z,21.29
2023-07-25T09:14:18.626Z,21.11
2023-07-25T09:16:45.507Z,20.97
2023-07-25T09:19:13.855Z,20.83
2023-07-25T09:21:51.710Z,20.67
2023-07-25T09:24:19.011Z,20.54
2023-07-25T09:26:53.535Z,20.50
2023-07-25T09:29:22.160Z,20.46
2023-07-25T09:31:49.141Z,20.40
2023-07-25T09:34:24.476Z,20.43
2023-07-25T09:36:52.683Z,20.48
2023-07-25T09:39:19.532Z,20.56
2023-07-25T09:41:46.954Z,20.61
2023-07-25T09:44:14.317Z,20.71
2023-07-25T09:46:52.317Z,20.78
2023-07-25T09:49:22.356Z,20.77
2023-07-25T09:52:04.482Z,20.73
2023-07-25T09:54:31.316Z,20.70
2023-07-25T09:56:59.016Z,20.58
2023-07-25T09:59:26.037Z,20.50
2023-07-25T10:01:53.676Z,20.42
2023-07-25T10:04:23.382Z,20.12
2023-07-25T10:06:50.750Z,19.63
2023-07-25T10:09:18.864Z,19.33
2023-07-25T10:11:47.659Z,19.07
2023-07-25T10:14:15.115Z,18.84
2023-07-25T10:16:42.368Z,18.70
2023-07-25T10:19:09.398Z,18.63
2023-07-25T10:21:52.594Z,18.51
2023-07-25T10:24:21.416Z,18.48
2023-07-25T10:26:58.450Z,18.48
2023-07-25T10:29:38.896Z,18.56
2023-07-25T10:32:08.286Z,18.61
2023-07-25T10:34:48.274Z,18.89
2023-07-25T10:37:24.714Z,19.19
2023-07-25T10:40:17.647Z,19.59
2023-07-25T10:43:04.352Z,20.16
2023-07-25T10:45:34.529Z,20.81
2023-07-25T10:48:01.821Z,21.31
2023-07-25T10:50:46.889Z,21.93
2023-07-25T10:53:18.120Z,22.34
2023-07-25T10:56:11.606Z,22.80
2023-07-25T10:59:00.968Z,23.10
2023-07-25T11:01:41.527Z,23.32
2023-07-25T11:04:29.336Z,23.60
2023-07-25T11:07:14.723Z,23.78
2023-07-25T11:09:45.657Z,23.91
2023-07-25T11:12:13.404Z,24.09
2023-07-25T11:14:50.606Z,24.13
2023-07-25T11:17:17.539Z,24.12
2023-07-25T11:19:44.403Z,23.95
2023-07-25T11:22:13.031Z,24.06
2023-07-25T11:24:48.378Z,24.08
2023-07-25T11:27:15.851Z,24.64
2023-07-25T11:29:42.851Z,25.27
2023-07-25T11:32:09.925Z,26.05
2023-07-25T11:34:36.852Z,26.53
2023-07-25T11:37:12.962Z,27.06
2023-07-25T11:39:39.898Z,27.45
2023-07-25T11:42:09.436Z,27.72
2023-07-25T11:44:36.462Z,28.05
2023-07-25T11:47:03.809Z,28.37
2023-07-25T11:49:47.491Z,28.60
2023-07-25T11:52:17.050Z,28.71
2023-07-25T11:54:44.028Z,28.81
2023-07-25T11:57:12.266Z,28.83
2023-07-25T11:59:42.784Z,29.02
2023-07-25T12:02:11.217Z,28.80
2023-07-25T12:04:45.588Z,28.95
2023-07-25T12:07:16.245Z,28.90
2023-07-25T12:09:56.326Z,28.79
2023-07-25T12:12:23.351Z,28.64
2023-07-25T12:14:58.689Z,28.25
2023-07-25T12:17:42.248Z,27.99
2023-07-25T12:20:19.910Z,27.67
2023-07-25T12:22:47.707Z,27.42
2023-07-25T12:25:19.295Z,27.29
2023-07-25T12:27:47.880Z,27.28
2023-07-25T12:30:15.502Z,27.31
2023-07-25T12:32:42.427Z,27.45
2023-07-25T12:35:11.138Z,27.61
2023-07-25T12:37:37.967Z,27.92
2023-07-25T12:40:05.446Z,28.34
2023-07-25T12:42:32.254Z,28.68
2023-07-25T12:45:03.956Z,28.94
2023-07-25T12:47:30.824Z,29.19
2023-07-25T12:49:57.704Z,29.30
2023-07-25T12:52:24.517Z,29.34
2023-07-25T12:54:51.395Z,29.40
2023-07-25T12:57:18.361Z,29.51
2023-07-25T12:59:46.408Z,30.08
2023-07-25T13:02:19.543Z,30.23
2023-07-25T13:04:46.753Z,30.27
2023-07-25T13:07:14.883Z,29.84
2023-07-25T13:09:41.836Z,29.49
2023-07-25T13:12:09.041Z,29.80
2023-07-25T13:14:35.976Z,29.97
2023-07-25T13:17:02.992Z,29.16
2023-07-25T13:19:32.435Z,29.15
2023-07-25T13:21:59.347Z,28.88
2023-07-25T13:24:26.348Z,29.11
2023-07-25T13:26:53.270Z,29.12
2023-07-25T13:29:20.338Z,28.87
2023-07-25T13:31:47.262Z,28.54
2023-07-25T13:34:14.338Z,28.41
2023-07-25T13:36:41.300Z,27.99
2023-07-25T13:39:08.732Z,27.66
2023-07-25T13:41:35.740Z,27.82
2023-07-25T13:44:02.867Z,27.72
2023-07-25T13:46:29.939Z,28.21
2023-07-25T13:48:56.903Z,28.05
2023-07-25T13:51:24.029Z,28.30
2023-07-25T13:53:51.045Z,28.03
2023-07-25T13:56:20.592Z,28.25
2023-07-25T13:58:47.587Z,28.60
2023-07-25T14:01:14.950Z,28.02
2023-07-25T14:03:43.443Z,28.30
2023-07-25T14:06:10.674Z,27.89
2023-07-25T14:08:37.695Z,28.12
2023-07-25T14:11:04.671Z,27.78
2023-07-25T14:13:32.075Z,27.52
2023-07-25T14:16:00.588Z,27.08
2023-07-25T14:18:27.606Z,26.49
2023-07-25T14:20:56.609Z,26.00
2023-07-25T14:23:23.815Z,25.78
2023-07-25T14:25:51.145Z,25.33
2023-07-25T14:28:18.056Z,24.85
2023-07-25T14:30:44.984Z,24.86
2023-07-25T14:33:13.897Z,24.52
2023-07-25T14:35:43.265Z,23.63
2023-07-25T14:38:14.027Z,23.25
2023-07-25T14:40:41.686Z,23.37
2023-07-25T14:43:08.739Z,22.72
2023-07-25T14:45:35.843Z,22.29
2023-07-25T14:48:05.996Z,21.87
2023-07-25T14:50:34.062Z,21.59
2023-07-25T14:53:01.120Z,21.44
2023-07-25T14:55:29.324Z,20.97
2023-07-25T14:57:56.241Z,21.04
2023-07-25T15:00:25.493Z,21.42
2023-07-25T15:02:52.776Z,20.75
2023-07-25T15:05:20.025Z,20.83
2023-07-25T15:07:50.077Z,20.83
2023-07-25T15:10:17.067Z,20.62
2023-07-25T15:12:44.116Z,20.48
2023-07-25T15:15:11.732Z,20.49
2023-07-25T15:17:38.884Z,20.63
2023-07-25T15:20:11.629Z,20.87
2023-07-25T15:22:39.029Z,20.73
2023-07-25T15:25:06.544Z,20.81
2023-07-25T15:27:34.133Z,20.42
2023-07-25T15:30:01.348Z,21.13
2023-07-25T15:32:28.615Z,20.28
2023-07-25T15:34:55.643Z,20.30
2023-07-25T15:37:22.584Z,20.58
2023-07-25T15:39:49.635Z,20.32
2023-07-25T15:42:16.689Z,20.87
2023-07-25T15:44:43.732Z,21.19
2023-07-25T15:47:10.809Z,20.85
2023-07-25T15:52:28.051Z,21.02
2023-07-25T15:54:55.439Z,21.32
2023-07-25T15:57:22.473Z,22.06
2023-07-25T15:59:49.528Z,22.42
2023-07-25T16:02:17.070Z,22.85
2023-07-25T16:04:44.016Z,22.99
2023-07-25T16:07:10.988Z,23.19
2023-07-25T16:09:38.838Z,23.59
2023-07-25T16:12:07.475Z,23.43
2023-07-25T16:14:34.384Z,23.92
2023-07-25T16:17:01.406Z,23.49
2023-07-25T16:19:28.716Z,23.73
2023-07-25T16:21:55.610Z,23.64
2023-07-25T16:24:22.730Z,23.88
2023-07-25T16:26:49.617Z,23.97
2023-07-25T16:29:19.630Z,23.69
2023-07-25T16:31:51.321Z,23.53
2023-07-25T16:34:18.652Z,23.82
2023-07-25T16:36:45.546Z,23.34
2023-07-25T16:39:12.541Z,23.57
2023-07-25T16:41:39.484Z,23.26
2023-07-25T16:44:06.390Z,23.41
2023-07-25T16:46:33.416Z,23.22
2023-07-25T16:49:00.354Z,22.79
2023-07-25T16:51:37.053Z,22.65
2023-07-25T16:54:03.988Z,22.61
2023-07-25T16:56:31.210Z,22.07
2023-07-25T16:58:58.470Z,21.92
2023-07-25T17:01:25.358Z,21.63
2023-07-25T17:03:52.395Z,21.59
2023-07-25T17:06:19.276Z,21.48
2023-07-25T17:08:47.187Z,22.12
2023-07-25T17:11:15.993Z,22.04
2023-07-25T17:13:43.131Z,21.44
2023-07-25T17:16:10.967Z,21.09
2023-07-25T17:18:37.886Z,21.11
2023-07-25T17:21:04.814Z,21.01
2023-07-25T17:23:31.762Z,21.17
2023-07-25T17:25:58.624Z,21.29
2023-07-25T17:28:25.863Z,21.55
2023-07-25T17:30:52.872Z,21.72
2023-07-25T17:33:19.787Z,21.82
2023-07-25T17:35:46.737Z,21.91
2023-07-25T17:38:15.148Z,21.76
2023-07-25T17:40:42.980Z,21.89
2023-07-25T17:43:09.864Z,21.75
2023-07-25T17:45:39.610Z,21.12
2023-07-25T17:48:06.954Z,21.16
2023-07-25T17:50:33.853Z,21.02
2023-07-25T17:53:00.936Z,20.34
2023-07-25T17:55:28.482Z,20.50
2023-07-25T17:57:55.337Z,20.17
2023-07-25T18:00:22.307Z,19.97
2023-07-25T18:02:49.320Z,19.54
2023-07-25T18:05:16.306Z,19.62
2023-07-25T18:07:43.173Z,19.57
2023-07-25T18:10:10.202Z,19.44
2023-07-25T18:12:37.086Z,19.22
2023-07-25T18:15:04.386Z,19.37
2023-07-25T18:17:31.305Z,19.30
2023-07-25T18:19:58.155Z,19.00
2023-07-25T18:22:27.107Z,19.03
2023-07-25T18:24:54.025Z,18.85
2023-07-25T18:27:20.977Z,18.75
2023-07-25T18:29:47.806Z,18.38
2023-07-25T18:32:14.688Z,18.02
2023-07-25T18:34:41.539Z,17.94
2023-07-25T18:37:08.676Z,17.83
2023-07-25T18:39:35.588Z,17.49
2023-07-25T18:42:02.575Z,17.39
2023-07-25T18:44:29.506Z,17.28
2023-07-25T18:46:56.372Z,17.31
2023-07-25T18:49:24.823Z,17.15
2023-07-25T18:51:52.232Z,17.03
2023-07-25T18:54:19.147Z,16.96
2023-07-25T18:56:46.028Z,16.86
2023-07-25T18:59:12.864Z,16.65
2023-07-25T19:01:39.778Z,16.64
2023-07-25T19:04:06.914Z,16.45
2023-07-25T19:06:34.254Z,16.59
2023-07-25T19:09:01.433Z,16.38
2023-07-25T19:11:28.297Z,16.48
2023-07-25T19:13:55.195Z,16.33
2023-07-25T19:16:22.301Z,16.43
2023-07-25T19:18:51.659Z,16.30
2023-07-25T19:21:19.437Z,16.19
2023-07-25T19:23:46.445Z,16.12
2023-07-25T19:26:13.283Z,16.07
2023-07-25T19:28:40.200Z,15.89
2023-07-25T19:31:07.813Z,15.93
2023-07-25T19:33:34.888Z,15.81
2023-07-25T19:36:01.982Z,15.75
2023-07-25T19:38:29.250Z,15.61
2023-07-25T19:40:56.264Z,15.80
2023-07-25T19:43:23.444Z,15.52
2023-07-25T19:45:50.439Z,15.60
2023-07-25T19:48:18.279Z,15.67
2023-07-25T19:50:48.091Z,15.58
2023-07-25T19:53:15.904Z,15.59
2023-07-25T19:55:42.919Z,15.69
2023-07-25T19:58:09.792Z,15.73
2023-07-25T20:00:38.154Z,15.68
2023-07-25T20:03:05.513Z,15.58
2023-07-25T20:05:32.631Z,15.64
2023-07-25T20:08:00.775Z,15.44
2023-07-25T20:10:27.673Z,15.70
2023-07-25T20:12:54.506Z,15.66
2023-07-25T20:15:21.529Z,15.80
2023-07-25T20:17:51.670Z,15.80
2023-07-25T20:20:18.624Z,15.57
2023-07-25T20:22:45.556Z,15.76
2023-07-25T20:25:16.208Z,15.77
2023-07-25T20:27:43.115Z,15.63
2023-07-25T20:30:12.344Z,15.65
2023-07-25T20:32:39.488Z,15.77
2023-07-25T20:35:06.591Z,15.72
2023-07-25T20:37:33.726Z,15.71
2023-07-25T20:40:00.549Z,15.67
2023-07-25T20:42:27.466Z,15.54
2023-07-25T20:44:54.284Z,15.50
2023-07-25T20:47:21.108Z,15.52
2023-07-25T20:49:48.012Z,15.27
2023-07-25T20:52:14.838Z,15.25
2023-07-25T20:54:41.653Z,15.26
2023-07-25T20:57:08.476Z,15.15
2023-07-25T20:59:35.315Z,15.13
2023-07-25T21:02:04.680Z,14.90
2023-07-25T21:04:31.528Z,14.89
2023-07-25T21:06:58.412Z,14.84
2023-07-25T21:09:28.187Z,14.97
2023-07-25T21:11:55.122Z,14.89
2023-07-25T21:14:22.368Z,14.83
2023-07-25T21:16:51.405Z,14.81
2023-07-25T21:19:18.351Z,14.99
2023-07-25T21:21:45.222Z,14.90
2023-07-25T21:24:12.111Z,14.78
2023-07-25T21:26:38.963Z,14.98
2023-07-25T21:29:05.808Z,15.04
2023-07-25T21:31:32.688Z,15.00
2023-07-25T21:34:02.413Z,15.13
2023-07-25T21:36:30.569Z,15.10
2023-07-25T21:38:57.630Z,15.04
2023-07-25T21:41:24.504Z,15.03
2023-07-25T21:43:51.408Z,14.90
2023-07-25T21:46:18.299Z,14.93
2023-07-25T21:48:46.068Z,14.90
2023-07-25T21:51:13.125Z,14.86
2023-07-25T21:53:40.169Z,14.77
2023-07-25T21:56:07.020Z,14.88
2023-07-25T21:58:33.891Z,14.76
2023-07-25T22:01:00.801Z,14.77
2023-07-25T22:03:33.076Z,14.43
2023-07-25T22:06:00.719Z,14.63
2023-07-25T22:08:27.940Z,14.69
2023-07-25T22:10:55.710Z,14.77
2023-07-25T22:13:23.882Z,14.70
2023-07-25T22:15:50.934Z,14.53
2023-07-25T22:18:17.958Z,14.64
2023-07-25T22:20:51.568Z,14.62
2023-07-25T22:23:20.372Z,14.50
2023-07-25T22:25:47.302Z,14.68
2023-07-25T22:28:14.149Z,14.47
2023-07-25T22:30:40.994Z,14.61
2023-07-25T22:33:07.840Z,14.42
2023-07-25T22:35:35.991Z,14.54
2023-07-25T22:38:04.246Z,14.46
2023-07-25T22:40:31.365Z,14.39
2023-07-25T22:42:58.201Z,14.41
2023-07-25T22:45:27.019Z,14.32
2023-07-25T22:47:54.508Z,14.18
2023-07-25T22:50:21.749Z,14.26
2023-07-25T22:52:49.136Z,14.27
2023-07-25T22:55:19.063Z,14.07
2023-07-25T22:57:46.346Z,14.23
2023-07-25T23:00:13.577Z,14.14
2023-07-25T23:02:40.912Z,14.04
2023-07-25T23:05:08.271Z,13.94
2023-07-25T23:07:35.354Z,14.01
2023-07-25T23:10:03.125Z,13.58
2023-07-25T23:12:30.094Z,13.91
2023-07-25T23:14:57.114Z,13.76
2023-07-25T23:17:25.056Z,13.97
2023-07-25T23:19:52.047Z,14.07
2023-07-25T23:22:19.707Z,14.07
2023-07-25T23:24:46.796Z,13.88
2023-07-25T23:27:13.699Z,13.91
2023-07-25T23:29:40.554Z,13.74
2023-07-25T23:32:07.822Z,14.07
2023-07-25T23:34:50.397Z,13.81
2023-07-25T23:37:18.199Z,14.04
2023-07-25T23:39:45.333Z,14.01
2023-07-25T23:42:12.743Z,13.90
2023-07-25T23:44:39.748Z,13.88
2023-07-25T23:47:07.208Z,14.04
2023-07-25T23:49:34.876Z,14.03
2023-07-25T23:52:02.257Z,13.96
2023-07-25T23:54:29.112Z,14.09
2023-07-25T23:56:55.970Z,14.02
2023-07-25T23:59:22.929Z,14.02
